sensor_id;sensor_type;location;lat;lon;timestamp;pressure;altitude;pressure_sealevel;temperature;humidity
51227;BME280;42714;48.260;10.980;2023-07-09T00:00:26;974.5;;;22.7;95.1
51227;BME280;42714;48.260;10.980;2023-07-09T00:05:27;974.5;;;22.5;98.5
51227;BME280;42714;48.260;10.980;2023-07-09T00:10:28;974.6;;;22.5;99.9
51227;BME280;42714;48.260;10.980;2023-07-09T00:15:29;974.6;;;22.5;99.5
51227;BME280;42714;48.260;10.980;2023-07-09T00:20:30;974.6;;;22.5;100.0
51227;BME280;42714;48.260;10.980;2023-07-09T00:25:31;974.6;;;22.4;100.0
51227;BME280;42714;48.260;10.980;2023-07-09T00:30:32;974.6;;;22.2;100.0
51227;BME280;42714;48.260;10.980;2023-07-09T00:35:33;974.6;;;22.1;100.0
51227;BME280;42714;48.260;10.980;2023-07-09T00:40:34;974.6;;;22.0;100.0
51227;BME280;42714;48.260;10.980;2023-07-09T00:45:35;974.7;;;22.0;100.0
51227;BME280;42714;48.260;10.980;2023-07-09T00:50:37;974.7;;;22.0;100.0
51227;BME280;42714;48.260;10.980;2023-07-09T00:55:38;974.8;;;21.9;100.0
51227;BME280;42714;48.260;10.980;2023-07-09T01:00:39;974.8;;;21.8;100.0
51227;BME280;42714;48.260;10.980;2023-07-09T01:05:39;974.9;;;21.8;100.0
51227;BME280;42714;48.260;10.980;2023-07-09T01:10:40;974.9;;;21.7;100.0
51227;BME280;42714;48.260;10.980;2023-07-09T01:15:41;974.9;;;21.6;100.0
51227;BME280;42714;48.260;10.980;2023-07-09T01:20:42;974.9;;;21.5;100.0
51227;BME280;42714;48.260;10.980;2023-07-09T01:25:45;974.9;;;21.5;100.0
51227;BME280;42714;48.260;10.980;2023-07-09T01:30:44;975.0;;;21.4;100.0
51227;BME280;42714;48.260;10.980;2023-07-09T01:35:45;975.0;;;21.3;100.0
51227;BME280;42714;48.260;10.980;2023-07-09T01:40:46;975.0;;;21.2;100.0
51227;BME280;42714;48.260;10.980;2023-07-09T01:45:47;975.0;;;21.1;100.0
51227;BME280;42714;48.260;10.980;2023-07-09T01:50:48;975.0;;;21.1;100.0
51227;BME280;42714;48.260;10.980;2023-07-09T01:55:49;974.9;;;21.0;100.0
51227;BME280;42714;48.260;10.980;2023-07-09T02:00:50;974.9;;;21.0;100.0
51227;BME280;42714;48.260;10.980;2023-07-09T02:05:52;974.9;;;21.1;100.0
51227;BME280;42714;48.260;10.980;2023-07-09T02:10:52;974.9;;;21.1;100.0
51227;BME280;42714;48.260;10.980;2023-07-09T02:15:53;974.9;;;21.0;100.0
51227;BME280;42714;48.260;10.980;2023-07-09T02:20:54;975.0;;;20.8;100.0
51227;BME280;42714;48.260;10.980;2023-07-09T02:25:55;975.0;;;20.6;100.0
51227;BME280;42714;48.260;10.980;2023-07-09T02:30:56;975.0;;;20.4;100.0
51227;BME280;42714;48.260;10.980;2023-07-09T02:35:57;975.1;;;20.4;100.0
51227;BME280;42714;48.260;10.980;2023-07-09T02:40:58;975.0;;;20.5;100.0
51227;BME280;42714;48.260;10.980;2023-07-09T02:45:59;975.1;;;20.6;100.0
51227;BME280;42714;48.260;10.980;2023-07-09T02:51:00;975.1;;;20.6;100.0
51227;BME280;42714;48.260;10.980;2023-07-09T02:56:01;975.1;;;20.7;100.0
51227;BME280;42714;48.260;10.980;2023-07-09T03:01:02;975.1;;;20.6;100.0
51227;BME280;42714;48.260;10.980;2023-07-09T03:06:03;975.2;;;20.7;100.0
51227;BME280;42714;48.260;10.980;2023-07-09T03:16:05;975.2;;;20.6;100.0
51227;BME280;42714;48.260;10.980;2023-07-09T03:21:06;975.2;;;20.6;100.0
51227;BME280;42714;48.260;10.980;2023-07-09T03:26:07;975.1;;;20.6;100.0
51227;BME280;42714;48.260;10.980;2023-07-09T03:31:08;975.2;;;20.6;100.0
51227;BME280;42714;48.260;10.980;2023-07-09T03:36:09;975.2;;;20.6;100.0
51227;BME280;42714;48.260;10.980;2023-07-09T03:41:10;975.3;;;20.6;100.0
51227;BME280;42714;48.260;10.980;2023-07-09T03:46:11;975.3;;;20.5;100.0
51227;BME280;42714;48.260;10.980;2023-07-09T03:51:12;975.4;;;20.4;100.0
51227;BME280;42714;48.260;10.980;2023-07-09T03:56:13;975.5;;;20.3;100.0
51227;BME280;42714;48.260;10.980;2023-07-09T04:01:14;975.5;;;20.3;100.0
51227;BME280;42714;48.260;10.980;2023-07-09T04:06:15;975.4;;;20.4;100.0
51227;BME280;42714;48.260;10.980;2023-07-09T04:11:16;975.5;;;20.5;100.0
51227;BME280;42714;48.260;10.980;2023-07-09T04:16:17;975.5;;;20.6;100.0
51227;BME280;42714;48.260;10.980;2023-07-09T04:21:18;975.6;;;20.7;100.0
51227;BME280;42714;48.260;10.980;2023-07-09T04:26:19;975.6;;;20.8;100.0
51227;BME280;42714;48.260;10.980;2023-07-09T04:31:20;975.7;;;20.8;100.0
51227;BME280;42714;48.260;10.980;2023-07-09T04:36:21;975.6;;;20.9;100.0
51227;BME280;42714;48.260;10.980;2023-07-09T04:41:22;975.7;;;21.1;100.0
51227;BME280;42714;48.260;10.980;2023-07-09T04:46:23;975.7;;;21.2;100.0
51227;BME280;42714;48.260;10.980;2023-07-09T04:51:24;975.6;;;21.3;100.0
51227;BME280;42714;48.260;10.980;2023-07-09T04:56:25;975.6;;;21.4;100.0
51227;BME280;42714;48.260;10.980;2023-07-09T05:01:26;975.7;;;21.5;100.0
51227;BME280;42714;48.260;10.980;2023-07-09T05:06:27;975.7;;;21.6;100.0
51227;BME280;42714;48.260;10.980;2023-07-09T05:11:28;975.7;;;21.8;100.0
51227;BME280;42714;48.260;10.980;2023-07-09T05:16:29;975.7;;;22.0;100.0
51227;BME280;42714;48.260;10.980;2023-07-09T05:21:30;975.8;;;22.2;100.0
51227;BME280;42714;48.260;10.980;2023-07-09T05:26:31;975.8;;;22.3;100.0
51227;BME280;42714;48.260;10.980;2023-07-09T05:31:32;975.8;;;22.5;100.0
51227;BME280;42714;48.260;10.980;2023-07-09T05:36:33;975.8;;;22.7;100.0
51227;BME280;42714;48.260;10.980;2023-07-09T05:41:34;975.8;;;23.0;100.0
51227;BME280;42714;48.260;10.980;2023-07-09T05:46:35;975.8;;;23.3;100.0
51227;BME280;42714;48.260;10.980;2023-07-09T05:51:36;975.9;;;23.7;100.0
51227;BME280;42714;48.260;10.980;2023-07-09T05:56:37;975.9;;;24.1;100.0
51227;BME280;42714;48.260;10.980;2023-07-09T06:01:38;975.9;;;24.4;100.0
51227;BME280;42714;48.260;10.980;2023-07-09T06:06:40;975.8;;;24.8;99.0
51227;BME280;42714;48.260;10.980;2023-07-09T06:11:40;975.9;;;25.1;96.3
51227;BME280;42714;48.260;10.980;2023-07-09T06:16:41;975.8;;;25.4;94.0
51227;BME280;42714;48.260;10.980;2023-07-09T06:21:42;975.8;;;25.8;91.1
51227;BME280;42714;48.260;10.980;2023-07-09T06:26:43;975.8;;;25.9;88.9
51227;BME280;42714;48.260;10.980;2023-07-09T06:31:44;975.8;;;26.1;88.4
51227;BME280;42714;48.260;10.980;2023-07-09T06:36:45;975.8;;;26.6;85.3
51227;BME280;42714;48.260;10.980;2023-07-09T06:41:46;975.8;;;27.1;82.6
51227;BME280;42714;48.260;10.980;2023-07-09T06:46:47;975.8;;;27.5;77.5
51227;BME280;42714;48.260;10.980;2023-07-09T06:51:48;975.8;;;27.9;71.6
51227;BME280;42714;48.260;10.980;2023-07-09T06:56:49;975.8;;;28.3;69.5
51227;BME280;42714;48.260;10.980;2023-07-09T07:01:50;975.8;;;28.7;66.5
51227;BME280;42714;48.260;10.980;2023-07-09T07:06:51;975.7;;;29.1;62.1
51227;BME280;42714;48.260;10.980;2023-07-09T07:11:52;975.7;;;29.5;59.7
51227;BME280;42714;48.260;10.980;2023-07-09T07:16:53;975.6;;;29.9;56.2
51227;BME280;42714;48.260;10.980;2023-07-09T07:21:54;975.7;;;30.3;53.1
51227;BME280;42714;48.260;10.980;2023-07-09T07:26:55;975.6;;;30.6;49.7
51227;BME280;42714;48.260;10.980;2023-07-09T07:31:56;975.6;;;30.9;46.4
51227;BME280;42714;48.260;10.980;2023-07-09T07:36:57;975.6;;;31.0;45.9
51227;BME280;42714;48.260;10.980;2023-07-09T07:41:58;975.6;;;31.3;40.5
51227;BME280;42714;48.260;10.980;2023-07-09T07:46:59;975.6;;;31.6;39.1
51227;BME280;42714;48.260;10.980;2023-07-09T07:52:00;975.6;;;31.9;38.6
51227;BME280;42714;48.260;10.980;2023-07-09T07:57:01;975.5;;;32.4;38.1
51227;BME280;42714;48.260;10.980;2023-07-09T08:02:02;975.5;;;33.0;35.0
51227;BME280;42714;48.260;10.980;2023-07-09T08:07:04;975.5;;;33.3;35.3
51227;BME280;42714;48.260;10.980;2023-07-09T08:12:05;975.5;;;34.2;34.0
51227;BME280;42714;48.260;10.980;2023-07-09T08:17:05;975.4;;;35.2;31.3
51227;BME280;42714;48.260;10.980;2023-07-09T08:22:06;975.4;;;36.1;30.6
51227;BME280;42714;48.260;10.980;2023-07-09T08:27:08;975.4;;;36.5;28.2
51227;BME280;42714;48.260;10.980;2023-07-09T08:32:09;975.2;;;37.1;27.9
51227;BME280;42714;48.260;10.980;2023-07-09T08:37:09;975.2;;;37.1;28.0
51227;BME280;42714;48.260;10.980;2023-07-09T08:42:11;975.2;;;37.2;28.5
51227;BME280;42714;48.260;10.980;2023-07-09T08:47:16;975.3;;;37.4;26.9
51227;BME280;42714;48.260;10.980;2023-07-09T08:52:24;975.3;;;36.3;26.9
51227;BME280;42714;48.260;10.980;2023-07-09T08:57:17;975.3;;;35.8;28.3
51227;BME280;42714;48.260;10.980;2023-07-09T09:02:22;975.3;;;36.0;28.7
51227;BME280;42714;48.260;10.980;2023-07-09T09:07:39;975.3;;;35.9;27.5
51227;BME280;42714;48.260;10.980;2023-07-09T09:12:19;975.3;;;35.7;28.3
51227;BME280;42714;48.260;10.980;2023-07-09T09:17:18;975.3;;;34.9;29.5
51227;BME280;42714;48.260;10.980;2023-07-09T09:22:21;975.4;;;34.4;29.5
51227;BME280;42714;48.260;10.980;2023-07-09T09:27:19;975.4;;;34.2;31.5
51227;BME280;42714;48.260;10.980;2023-07-09T09:32:23;975.4;;;34.5;30.7
51227;BME280;42714;48.260;10.980;2023-07-09T09:37:31;975.3;;;34.5;30.7
51227;BME280;42714;48.260;10.980;2023-07-09T09:42:23;975.3;;;34.4;29.6
51227;BME280;42714;48.260;10.980;2023-07-09T09:47:26;975.3;;;34.2;30.1
51227;BME280;42714;48.260;10.980;2023-07-09T09:52:27;975.3;;;34.4;29.4
51227;BME280;42714;48.260;10.980;2023-07-09T09:57:27;975.3;;;34.7;29.2
51227;BME280;42714;48.260;10.980;2023-07-09T10:02:26;975.3;;;35.0;29.2
51227;BME280;42714;48.260;10.980;2023-07-09T10:07:30;975.3;;;35.1;28.7
51227;BME280;42714;48.260;10.980;2023-07-09T10:22:36;975.4;;;35.2;29.0
51227;BME280;42714;48.260;10.980;2023-07-09T10:27:34;975.4;;;35.1;28.5
51227;BME280;42714;48.260;10.980;2023-07-09T10:32:36;975.3;;;35.0;29.0
51227;BME280;42714;48.260;10.980;2023-07-09T10:42:36;975.3;;;35.2;28.6
51227;BME280;42714;48.260;10.980;2023-07-09T10:47:37;975.3;;;35.3;28.0
51227;BME280;42714;48.260;10.980;2023-07-09T10:52:37;975.2;;;35.2;28.1
51227;BME280;42714;48.260;10.980;2023-07-09T10:57:59;975.2;;;35.3;28.4
51227;BME280;42714;48.260;10.980;2023-07-09T11:02:38;975.1;;;35.5;29.0
51227;BME280;42714;48.260;10.980;2023-07-09T11:07:41;975.1;;;35.7;26.9
51227;BME280;42714;48.260;10.980;2023-07-09T11:12:42;975.1;;;35.6;26.6
51227;BME280;42714;48.260;10.980;2023-07-09T11:17:44;975.0;;;35.7;26.5
51227;BME280;42714;48.260;10.980;2023-07-09T11:22:50;975.0;;;35.7;26.6
51227;BME280;42714;48.260;10.980;2023-07-09T11:27:45;974.9;;;35.8;26.1
51227;BME280;42714;48.260;10.980;2023-07-09T11:32:45;974.9;;;36.0;26.4
51227;BME280;42714;48.260;10.980;2023-07-09T11:37:45;974.9;;;36.1;24.9
51227;BME280;42714;48.260;10.980;2023-07-09T11:42:51;974.8;;;35.8;24.9
51227;BME280;42714;48.260;10.980;2023-07-09T11:47:51;974.7;;;36.0;26.1
51227;BME280;42714;48.260;10.980;2023-07-09T11:52:51;974.7;;;36.3;24.9
51227;BME280;42714;48.260;10.980;2023-07-09T12:02:50;974.6;;;36.1;25.1
51227;BME280;42714;48.260;10.980;2023-07-09T12:07:51;974.4;;;36.3;25.1
51227;BME280;42714;48.260;10.980;2023-07-09T12:12:53;974.4;;;36.9;24.0
51227;BME280;42714;48.260;10.980;2023-07-09T12:17:55;974.5;;;37.2;24.9
51227;BME280;42714;48.260;10.980;2023-07-09T12:22:54;974.4;;;37.5;24.0
51227;BME280;42714;48.260;10.980;2023-07-09T12:27:57;974.4;;;37.7;24.3
51227;BME280;42714;48.260;10.980;2023-07-09T12:32:57;974.3;;;38.1;22.7
51227;BME280;42714;48.260;10.980;2023-07-09T12:37:57;974.3;;;37.7;22.9
51227;BME280;42714;48.260;10.980;2023-07-09T12:42:58;974.2;;;37.3;23.1
51227;BME280;42714;48.260;10.980;2023-07-09T12:47:59;974.2;;;37.0;23.8
51227;BME280;42714;48.260;10.980;2023-07-09T12:53:11;974.1;;;36.9;23.5
51227;BME280;42714;48.260;10.980;2023-07-09T12:58:01;974.1;;;36.9;24.3
51227;BME280;42714;48.260;10.980;2023-07-09T13:03:02;974.1;;;37.1;24.1
51227;BME280;42714;48.260;10.980;2023-07-09T13:08:03;974.1;;;37.0;22.7
51227;BME280;42714;48.260;10.980;2023-07-09T13:13:05;973.9;;;36.5;24.2
51227;BME280;42714;48.260;10.980;2023-07-09T13:18:07;974.0;;;36.2;24.3
51227;BME280;42714;48.260;10.980;2023-07-09T13:23:08;973.9;;;36.0;24.6
51227;BME280;42714;48.260;10.980;2023-07-09T13:28:11;974.0;;;36.0;24.5
51227;BME280;42714;48.260;10.980;2023-07-09T13:33:08;974.0;;;35.9;24.5
51227;BME280;42714;48.260;10.980;2023-07-09T13:38:11;974.0;;;35.8;24.4
51227;BME280;42714;48.260;10.980;2023-07-09T13:43:12;973.9;;;36.1;24.4
51227;BME280;42714;48.260;10.980;2023-07-09T13:48:13;973.9;;;36.2;23.9
51227;BME280;42714;48.260;10.980;2023-07-09T13:53:13;973.9;;;36.4;24.3
51227;BME280;42714;48.260;10.980;2023-07-09T13:58:14;973.8;;;36.6;23.4
51227;BME280;42714;48.260;10.980;2023-07-09T14:03:18;973.8;;;36.3;22.8
51227;BME280;42714;48.260;10.980;2023-07-09T14:08:16;973.7;;;36.0;23.6
51227;BME280;42714;48.260;10.980;2023-07-09T14:13:17;973.8;;;36.2;24.2
51227;BME280;42714;48.260;10.980;2023-07-09T14:18:19;973.7;;;36.4;24.2
51227;BME280;42714;48.260;10.980;2023-07-09T14:23:19;973.7;;;36.5;23.6
51227;BME280;42714;48.260;10.980;2023-07-09T14:28:20;973.7;;;36.2;23.5
51227;BME280;42714;48.260;10.980;2023-07-09T14:33:21;973.6;;;35.9;23.1
51227;BME280;42714;48.260;10.980;2023-07-09T14:38:23;973.6;;;35.5;23.4
51227;BME280;42714;48.260;10.980;2023-07-09T14:43:23;973.6;;;35.1;24.2
51227;BME280;42714;48.260;10.980;2023-07-09T14:48:24;973.6;;;34.9;24.8
51227;BME280;42714;48.260;10.980;2023-07-09T14:53:25;973.6;;;34.7;24.6
51227;BME280;42714;48.260;10.980;2023-07-09T14:58:26;973.5;;;34.6;24.8
51227;BME280;42714;48.260;10.980;2023-07-09T15:03:27;973.5;;;34.5;25.3
51227;BME280;42714;48.260;10.980;2023-07-09T15:08:28;973.5;;;34.5;25.2
51227;BME280;42714;48.260;10.980;2023-07-09T15:13:30;973.5;;;34.6;24.9
51227;BME280;42714;48.260;10.980;2023-07-09T15:18:30;973.4;;;34.3;25.3
51227;BME280;42714;48.260;10.980;2023-07-09T15:23:31;973.4;;;34.3;25.5
51227;BME280;42714;48.260;10.980;2023-07-09T15:28:32;973.4;;;34.3;25.9
51227;BME280;42714;48.260;10.980;2023-07-09T15:33:33;973.3;;;34.4;25.8
51227;BME280;42714;48.260;10.980;2023-07-09T15:38:34;973.3;;;34.5;25.4
51227;BME280;42714;48.260;10.980;2023-07-09T15:43:35;973.3;;;34.3;25.6
51227;BME280;42714;48.260;10.980;2023-07-09T15:48:36;973.3;;;34.2;26.1
51227;BME280;42714;48.260;10.980;2023-07-09T15:53:37;973.2;;;34.2;26.7
51227;BME280;42714;48.260;10.980;2023-07-09T15:58:38;973.2;;;34.3;26.6
51227;BME280;42714;48.260;10.980;2023-07-09T16:03:42;973.1;;;34.2;26.1
51227;BME280;42714;48.260;10.980;2023-07-09T16:08:40;973.1;;;34.1;26.4
51227;BME280;42714;48.260;10.980;2023-07-09T16:13:41;973.1;;;34.1;26.2
51227;BME280;42714;48.260;10.980;2023-07-09T16:18:42;973.0;;;34.0;25.9
51227;BME280;42714;48.260;10.980;2023-07-09T16:23:43;973.0;;;34.0;26.4
51227;BME280;42714;48.260;10.980;2023-07-09T16:28:44;973.0;;;34.0;26.9
51227;BME280;42714;48.260;10.980;2023-07-09T16:33:45;973.0;;;34.1;26.3
51227;BME280;42714;48.260;10.980;2023-07-09T16:38:46;972.9;;;33.9;26.4
51227;BME280;42714;48.260;10.980;2023-07-09T16:43:47;973.0;;;33.8;25.9
51227;BME280;42714;48.260;10.980;2023-07-09T16:48:48;973.0;;;33.7;26.3
51227;BME280;42714;48.260;10.980;2023-07-09T16:53:49;973.1;;;33.7;26.6
51227;BME280;42714;48.260;10.980;2023-07-09T16:58:50;973.0;;;33.6;26.2
51227;BME280;42714;48.260;10.980;2023-07-09T17:03:51;973.0;;;33.5;26.5
51227;BME280;42714;48.260;10.980;2023-07-09T17:08:52;973.0;;;33.4;27.0
51227;BME280;42714;48.260;10.980;2023-07-09T17:13:53;973.0;;;33.3;26.8
51227;BME280;42714;48.260;10.980;2023-07-09T17:18:54;973.0;;;33.3;26.9
51227;BME280;42714;48.260;10.980;2023-07-09T17:23:55;973.0;;;33.2;27.1
51227;BME280;42714;48.260;10.980;2023-07-09T17:28:56;973.0;;;33.1;27.9
51227;BME280;42714;48.260;10.980;2023-07-09T17:33:57;973.0;;;33.0;27.7
51227;BME280;42714;48.260;10.980;2023-07-09T17:38:58;973.0;;;33.0;28.3
51227;BME280;42714;48.260;10.980;2023-07-09T17:43:59;973.0;;;32.9;28.7
51227;BME280;42714;48.260;10.980;2023-07-09T17:49:00;973.0;;;32.9;29.1
51227;BME280;42714;48.260;10.980;2023-07-09T17:54:01;973.0;;;32.9;28.6
51227;BME280;42714;48.260;10.980;2023-07-09T17:59:02;973.0;;;32.8;28.6
51227;BME280;42714;48.260;10.980;2023-07-09T18:04:07;973.0;;;32.6;30.1
51227;BME280;42714;48.260;10.980;2023-07-09T18:09:04;973.0;;;32.5;29.8
51227;BME280;42714;48.260;10.980;2023-07-09T18:14:09;973.0;;;32.5;29.3
51227;BME280;42714;48.260;10.980;2023-07-09T18:19:07;973.0;;;32.4;29.5
51227;BME280;42714;48.260;10.980;2023-07-09T18:24:07;973.0;;;32.4;30.0
51227;BME280;42714;48.260;10.980;2023-07-09T18:29:12;973.1;;;32.3;30.2
51227;BME280;42714;48.260;10.980;2023-07-09T18:34:09;973.1;;;32.2;30.5
51227;BME280;42714;48.260;10.980;2023-07-09T18:39:10;973.1;;;32.1;31.3
51227;BME280;42714;48.260;10.980;2023-07-09T18:44:21;973.1;;;32.0;32.1
51227;BME280;42714;48.260;10.980;2023-07-09T18:49:12;973.1;;;32.0;33.0
51227;BME280;42714;48.260;10.980;2023-07-09T18:54:14;973.1;;;31.8;34.3
51227;BME280;42714;48.260;10.980;2023-07-09T18:59:16;973.1;;;31.7;35.1
51227;BME280;42714;48.260;10.980;2023-07-09T19:04:16;973.1;;;31.6;35.3
51227;BME280;42714;48.260;10.980;2023-07-09T19:09:17;973.1;;;31.4;35.8
51227;BME280;42714;48.260;10.980;2023-07-09T19:14:17;973.0;;;31.2;35.4
51227;BME280;42714;48.260;10.980;2023-07-09T19:19:19;973.1;;;31.1;36.4
51227;BME280;42714;48.260;10.980;2023-07-09T19:24:20;973.1;;;31.0;36.6
51227;BME280;42714;48.260;10.980;2023-07-09T19:29:20;973.1;;;30.8;37.3
51227;BME280;42714;48.260;10.980;2023-07-09T19:34:22;973.2;;;30.6;38.0
51227;BME280;42714;48.260;10.980;2023-07-09T19:39:24;973.2;;;30.3;39.0
51227;BME280;42714;48.260;10.980;2023-07-09T19:44:23;973.3;;;30.1;39.4
51227;BME280;42714;48.260;10.980;2023-07-09T19:49:24;973.4;;;30.0;38.9
51227;BME280;42714;48.260;10.980;2023-07-09T19:54:25;973.4;;;29.8;38.5
51227;BME280;42714;48.260;10.980;2023-07-09T19:59:26;973.4;;;29.6;38.5
51227;BME280;42714;48.260;10.980;2023-07-09T20:04:27;973.5;;;29.4;39.5
51227;BME280;42714;48.260;10.980;2023-07-09T20:09:28;973.5;;;29.5;40.0
51227;BME280;42714;48.260;10.980;2023-07-09T20:14:29;973.5;;;29.4;39.5
51227;BME280;42714;48.260;10.980;2023-07-09T20:19:30;973.5;;;29.2;40.7
51227;BME280;42714;48.260;10.980;2023-07-09T20:24:31;973.5;;;29.1;42.8
51227;BME280;42714;48.260;10.980;2023-07-09T20:29:32;973.5;;;29.0;42.4
51227;BME280;42714;48.260;10.980;2023-07-09T20:34:33;973.5;;;28.7;42.2
51227;BME280;42714;48.260;10.980;2023-07-09T20:39:34;973.5;;;28.5;42.4
51227;BME280;42714;48.260;10.980;2023-07-09T20:44:35;973.5;;;28.5;41.4
51227;BME280;42714;48.260;10.980;2023-07-09T20:49:36;973.5;;;28.5;41.8
51227;BME280;42714;48.260;10.980;2023-07-09T20:54:37;973.5;;;28.4;42.8
51227;BME280;42714;48.260;10.980;2023-07-09T20:59:38;973.6;;;28.3;44.1
51227;BME280;42714;48.260;10.980;2023-07-09T21:04:39;973.6;;;28.1;46.2
51227;BME280;42714;48.260;10.980;2023-07-09T21:09:40;973.6;;;28.0;53.4
51227;BME280;42714;48.260;10.980;2023-07-09T21:14:42;973.6;;;28.0;53.5
51227;BME280;42714;48.260;10.980;2023-07-09T21:19:42;973.7;;;28.0;54.3
51227;BME280;42714;48.260;10.980;2023-07-09T21:24:44;973.7;;;27.8;56.1
51227;BME280;42714;48.260;10.980;2023-07-09T21:29:44;973.8;;;27.7;57.6
51227;BME280;42714;48.260;10.980;2023-07-09T21:34:45;973.8;;;27.5;61.1
51227;BME280;42714;48.260;10.980;2023-07-09T21:39:46;973.8;;;27.5;61.1
51227;BME280;42714;48.260;10.980;2023-07-09T21:44:47;973.8;;;27.2;61.5
51227;BME280;42714;48.260;10.980;2023-07-09T21:49:48;973.8;;;26.9;63.7
51227;BME280;42714;48.260;10.980;2023-07-09T21:54:49;973.9;;;26.6;69.9
51227;BME280;42714;48.260;10.980;2023-07-09T21:59:50;973.8;;;26.3;69.5
51227;BME280;42714;48.260;10.980;2023-07-09T22:04:51;973.8;;;26.0;72.3
51227;BME280;42714;48.260;10.980;2023-07-09T22:09:52;973.8;;;25.8;71.4
51227;BME280;42714;48.260;10.980;2023-07-09T22:14:54;973.8;;;25.8;72.6
51227;BME280;42714;48.260;10.980;2023-07-09T22:19:54;973.8;;;25.9;72.0
51227;BME280;42714;48.260;10.980;2023-07-09T22:24:55;973.7;;;26.0;70.6
51227;BME280;42714;48.260;10.980;2023-07-09T22:29:56;973.7;;;26.0;72.3
51227;BME280;42714;48.260;10.980;2023-07-09T22:35:02;973.7;;;25.9;74.4
51227;BME280;42714;48.260;10.980;2023-07-09T22:39:59;973.7;;;25.9;73.3
51227;BME280;42714;48.260;10.980;2023-07-09T22:44:59;973.8;;;25.9;74.2
51227;BME280;42714;48.260;10.980;2023-07-09T22:50:00;973.8;;;25.8;75.3
51227;BME280;42714;48.260;10.980;2023-07-09T22:55:09;973.8;;;25.8;71.3
51227;BME280;42714;48.260;10.980;2023-07-09T23:00:02;973.8;;;25.7;70.3
51227;BME280;42714;48.260;10.980;2023-07-09T23:05:04;973.8;;;25.5;69.2
51227;BME280;42714;48.260;10.980;2023-07-09T23:10:04;973.8;;;25.5;70.4
51227;BME280;42714;48.260;10.980;2023-07-09T23:15:13;973.8;;;25.4;69.4
51227;BME280;42714;48.260;10.980;2023-07-09T23:20:11;973.9;;;25.4;69.6
51227;BME280;42714;48.260;10.980;2023-07-09T23:25:10;973.9;;;25.3;69.7
51227;BME280;42714;48.260;10.980;2023-07-09T23:35:13;973.8;;;25.1;74.1
51227;BME280;42714;48.260;10.980;2023-07-09T23:45:14;973.7;;;24.9;75.8
51227;BME280;42714;48.260;10.980;2023-07-09T23:50:13;973.7;;;24.9;75.7
51227;BME280;42714;48.260;10.980;2023-07-09T23:55:13;973.7;;;24.8;74.9
